createdAt,value
2023-03-30T00:00:21.380Z,99291.56
2023-03-30T00:02:51.025Z,99281.16
2023-03-30T00:05:18.551Z,99289.03
2023-03-30T00:07:46.895Z,99283.69
2023-03-30T00:10:17.742Z,99278.66
2023-03-30T00:12:47.215Z,99276.97
2023-03-30T00:15:15.432Z,99279.84
2023-03-30T00:17:42.564Z,99271.97
2023-03-30T00:20:11.790Z,99277.34
2023-03-30T00:22:40.188Z,99278.00
2023-03-30T00:25:08.771Z,99281.69
2023-03-30T00:27:36.762Z,99288.72
2023-03-30T00:30:13.803Z,99294.41
2023-03-30T00:32:42.155Z,99286.19
2023-03-30T00:35:10.582Z,99293.56
2023-03-30T00:37:38.371Z,99293.38
2023-03-30T00:40:08.100Z,99289.03
2023-03-30T00:42:38.303Z,99293.69
2023-03-30T00:45:08.572Z,99285.97
2023-03-30T00:47:37.937Z,99283.28
2023-03-30T00:50:05.499Z,99286.94
2023-03-30T00:52:33.254Z,99278.91
2023-03-30T00:55:00.391Z,99277.28
2023-03-30T00:57:28.084Z,99263.88
2023-03-30T00:59:55.679Z,99264.50
2023-03-30T01:02:23.416Z,99254.31
2023-03-30T01:04:53.159Z,99258.84
2023-03-30T01:07:24.249Z,99259.53
2023-03-30T01:09:53.044Z,99260.38
2023-03-30T01:12:20.624Z,99260.38
2023-03-30T01:14:48.194Z,99264.53
2023-03-30T01:17:21.809Z,99261.19
2023-03-30T01:20:12.360Z,99255.31
2023-03-30T01:22:50.148Z,99243.78
2023-03-30T01:25:36.771Z,99263.88
2023-03-30T01:28:24.250Z,99246.13
2023-03-30T01:30:57.550Z,99244.06
2023-03-30T01:33:43.519Z,99256.97
2023-03-30T01:36:25.779Z,99253.44
2023-03-30T01:39:11.763Z,99256.81
2023-03-30T01:41:41.764Z,99258.66
2023-03-30T01:44:19.531Z,99264.00
2023-03-30T01:46:56.903Z,99257.31
2023-03-30T01:49:31.944Z,99249.44
2023-03-30T01:52:10.578Z,99261.19
2023-03-30T01:54:42.002Z,99255.63
2023-03-30T01:57:18.441Z,99253.97
2023-03-30T01:59:57.413Z,99250.81
2023-03-30T02:02:27.471Z,99254.78
2023-03-30T02:04:57.724Z,99264.50
2023-03-30T02:07:29.907Z,99255.13
2023-03-30T02:10:01.296Z,99264.84
2023-03-30T02:12:30.166Z,99270.22
2023-03-30T02:15:03.939Z,99277.41
2023-03-30T02:17:31.413Z,99290.91
2023-03-30T02:19:59.071Z,99302.63
2023-03-30T02:22:27.209Z,99309.75
2023-03-30T02:24:55.007Z,99278.00
2023-03-30T02:27:22.807Z,99253.25
2023-03-30T02:29:49.918Z,99270.25
2023-03-30T02:32:19.522Z,99275.50
2023-03-30T02:35:05.305Z,99284.22
2023-03-30T02:37:38.458Z,99285.84
2023-03-30T02:40:15.839Z,99306.38
2023-03-30T02:42:55.363Z,99297.34
2023-03-30T02:45:42.918Z,99302.44
2023-03-30T02:48:16.801Z,99296.50
2023-03-30T02:50:46.936Z,99318.47
2023-03-30T02:53:40.428Z,99314.63
2023-03-30T02:56:12.668Z,99323.31
2023-03-30T02:58:55.184Z,99335.84
2023-03-30T03:01:23.039Z,99345.81
2023-03-30T03:04:07.450Z,99334.47
2023-03-30T03:06:43.606Z,99333.81
2023-03-30T03:09:10.663Z,99338.56
2023-03-30T03:11:37.806Z,99342.63
2023-03-30T03:14:04.929Z,99348.41
2023-03-30T03:16:34.129Z,99338.59
2023-03-30T03:19:14.734Z,99330.03
2023-03-30T03:21:42.417Z,99350.50
2023-03-30T03:24:09.864Z,99361.88
2023-03-30T03:26:56.968Z,99345.94
2023-03-30T03:29:24.520Z,99386.94
2023-03-30T03:31:51.972Z,99395.63
2023-03-30T03:34:21.399Z,99413.28
2023-03-30T03:36:57.996Z,99419.63
2023-03-30T03:39:27.829Z,99416.63
2023-03-30T03:42:02.834Z,99439.84
2023-03-30T03:44:29.888Z,99445.09
2023-03-30T03:46:57.026Z,99447.66
2023-03-30T03:49:24.167Z,99445.81
2023-03-30T03:51:51.208Z,99458.47
2023-03-30T03:54:18.472Z,99451.13
2023-03-30T03:56:48.298Z,99460.72
2023-03-30T03:59:15.704Z,99470.06
2023-03-30T04:01:42.795Z,99481.22
2023-03-30T04:04:09.920Z,99494.16
2023-03-30T04:06:37.089Z,99492.34
2023-03-30T04:09:04.207Z,99502.53
2023-03-30T04:12:06.747Z,99464.22
2023-03-30T04:14:58.110Z,99471.47
2023-03-30T04:17:49.946Z,99459.28
2023-03-30T04:20:25.871Z,99468.47
2023-03-30T04:23:21.958Z,99478.28
2023-03-30T04:25:52.064Z,99490.41
2023-03-30T04:28:46.914Z,99479.13
2023-03-30T04:31:38.506Z,99484.97
2023-03-30T04:34:31.248Z,99498.72
2023-03-30T04:37:11.657Z,99488.69
2023-03-30T04:39:58.337Z,99484.06
2023-03-30T04:42:34.200Z,99513.03
2023-03-30T04:45:24.705Z,99504.56
2023-03-30T04:48:18.082Z,99505.38
2023-03-30T04:51:04.281Z,99500.72
2023-03-30T04:53:50.325Z,99509.47
2023-03-30T04:56:41.123Z,99503.97
2023-03-30T04:59:40.954Z,99509.97
2023-03-30T05:02:25.212Z,99512.41
2023-03-30T05:05:21.578Z,99503.50
2023-03-30T05:08:07.390Z,99536.19
2023-03-30T05:10:49.491Z,99550.28
2023-03-30T05:13:26.259Z,99555.66
2023-03-30T05:16:16.337Z,99543.75
2023-03-30T05:18:54.822Z,99556.84
2023-03-30T05:21:46.359Z,99551.06
2023-03-30T05:24:36.328Z,99567.97
2023-03-30T05:27:22.591Z,99566.31
2023-03-30T05:29:58.159Z,99586.63
2023-03-30T05:32:41.465Z,99590.50
2023-03-30T05:35:27.590Z,99590.66
2023-03-30T05:38:17.504Z,99604.63
2023-03-30T05:41:05.565Z,99640.25
2023-03-30T05:43:51.610Z,99649.66
2023-03-30T05:46:31.487Z,99666.50
2023-03-30T05:49:14.011Z,99669.53
2023-03-30T05:51:49.172Z,99685.00
2023-03-30T05:54:30.987Z,99684.16
2023-03-30T05:57:10.243Z,99691.38
2023-03-30T05:59:59.086Z,99707.66
2023-03-30T06:02:48.998Z,99720.91
2023-03-30T06:05:19.151Z,99750.63
2023-03-30T06:07:47.275Z,99756.84
2023-03-30T06:10:14.470Z,99768.94
2023-03-30T06:12:43.533Z,99759.19
2023-03-30T06:15:24.336Z,99754.66
2023-03-30T06:17:56.272Z,99767.09
2023-03-30T06:20:24.459Z,99786.22
2023-03-30T06:22:52.608Z,99784.56
2023-03-30T06:25:23.937Z,99783.53
2023-03-30T06:27:52.058Z,99788.41
2023-03-30T06:30:19.176Z,99796.28
2023-03-30T06:32:49.830Z,99791.09
2023-03-30T06:35:47.208Z,99774.97
2023-03-30T06:38:17.431Z,99799.34
2023-03-30T06:40:44.681Z,99826.19
2023-03-30T06:43:22.384Z,99818.31
2023-03-30T06:46:11.274Z,99815.44
2023-03-30T06:48:39.831Z,99843.97
2023-03-30T06:51:25.265Z,99840.97
2023-03-30T06:53:56.003Z,99840.28
2023-03-30T06:56:23.373Z,99858.09
2023-03-30T06:59:05.429Z,99866.31
2023-03-30T07:01:37.564Z,99868.16
2023-03-30T07:04:25.729Z,99860.09
2023-03-30T07:07:28.936Z,99846.78
2023-03-30T07:09:56.075Z,99878.03
2023-03-30T07:12:24.087Z,99877.22
2023-03-30T07:14:52.150Z,99879.03
2023-03-30T07:17:19.266Z,99903.56
2023-03-30T07:19:46.339Z,99896.19
2023-03-30T07:22:13.563Z,99897.88
2023-03-30T07:24:41.110Z,99909.63
2023-03-30T07:27:08.740Z,99908.97
2023-03-30T07:29:37.050Z,99901.25
2023-03-30T07:32:04.286Z,99916.53
2023-03-30T07:34:31.680Z,99915.69
2023-03-30T07:36:59.092Z,99933.84
2023-03-30T07:39:31.054Z,99925.78
2023-03-30T07:42:00.572Z,99919.88
2023-03-30T07:44:29.367Z,99922.75
2023-03-30T07:46:58.352Z,99906.78
2023-03-30T07:49:27.099Z,99916.34
2023-03-30T07:51:54.962Z,99926.75
2023-03-30T07:54:26.355Z,99930.63
2023-03-30T07:57:13.757Z,99925.22
2023-03-30T07:59:41.654Z,99929.28
2023-03-30T08:02:39.406Z,99910.97
2023-03-30T08:05:10.029Z,99944.06
2023-03-30T08:07:49.749Z,99945.75
2023-03-30T08:10:23.752Z,99953.34
2023-03-30T08:12:51.180Z,99956.19
2023-03-30T08:15:18.287Z,99963.91
2023-03-30T08:17:46.039Z,99951.31
2023-03-30T08:20:13.258Z,99937.84
2023-03-30T08:22:40.350Z,99956.19
2023-03-30T08:25:07.791Z,99955.00
2023-03-30T08:27:34.883Z,99969.09
2023-03-30T08:30:02.115Z,99968.78
2023-03-30T08:32:29.253Z,99981.38
2023-03-30T08:34:56.422Z,99974.81
2023-03-30T08:37:23.648Z,99988.94
2023-03-30T08:39:50.691Z,99974.63
2023-03-30T08:42:40.980Z,99972.97
2023-03-30T08:45:10.688Z,99946.22
2023-03-30T08:47:39.751Z,99954.97
2023-03-30T08:50:09.516Z,99959.66
2023-03-30T08:52:37.026Z,99958.00
2023-03-30T08:55:04.532Z,99972.31
2023-03-30T08:57:41.768Z,99974.81
2023-03-30T09:00:20.012Z,99969.28
2023-03-30T09:02:50.022Z,99964.09
2023-03-30T09:05:27.465Z,99964.09
2023-03-30T09:07:57.364Z,99987.63
2023-03-30T09:10:26.199Z,100000.06
2023-03-30T09:12:56.882Z,99986.47
2023-03-30T09:15:31.902Z,99995.66
2023-03-30T09:18:18.013Z,99990.63
2023-03-30T09:20:46.420Z,99991.28
2023-03-30T09:23:17.597Z,99997.34
2023-03-30T09:25:44.993Z,99968.44
2023-03-30T09:28:17.808Z,99964.22
2023-03-30T09:31:01.595Z,99957.19
2023-03-30T09:33:41.636Z,99959.41
2023-03-30T09:36:38.371Z,99947.25
2023-03-30T09:39:09.496Z,99949.97
2023-03-30T09:41:39.577Z,99982.41
2023-03-30T09:44:11.781Z,99987.09
2023-03-30T09:46:38.853Z,99987.47
2023-03-30T09:49:13.529Z,99975.72
2023-03-30T09:51:59.499Z,99974.88
2023-03-30T09:54:33.881Z,99945.25
2023-03-30T09:57:01.077Z,99954.00
2023-03-30T09:59:35.867Z,99964.75
2023-03-30T10:02:10.784Z,99955.31
2023-03-30T10:04:53.380Z,99948.09
2023-03-30T10:07:31.703Z,99950.47
2023-03-30T10:10:00.779Z,99958.38
2023-03-30T10:12:28.531Z,99978.38
2023-03-30T10:14:56.845Z,99970.31
2023-03-30T10:17:25.043Z,99980.22
2023-03-30T10:20:03.660Z,99999.00
2023-03-30T10:22:37.520Z,99969.09
2023-03-30T10:25:10.389Z,99999.00
2023-03-30T10:27:39.644Z,99990.22
2023-03-30T10:30:11.800Z,100001.09
2023-03-30T10:32:43.420Z,100033.91
2023-03-30T10:35:10.721Z,100022.22
2023-03-30T10:37:39.881Z,100020.09
2023-03-30T10:40:15.635Z,99989.38
2023-03-30T10:42:43.192Z,99960.31
2023-03-30T10:45:18.165Z,99980.28
2023-03-30T10:48:03.815Z,99951.88
2023-03-30T10:50:35.995Z,99922.78
2023-03-30T10:53:21.751Z,99917.13
2023-03-30T10:55:53.087Z,99899.16
2023-03-30T10:58:44.319Z,99914.47
2023-03-30T11:01:16.511Z,99886.34
2023-03-30T11:03:48.349Z,99883.34
2023-03-30T11:06:24.741Z,99879.09
2023-03-30T11:08:53.181Z,99872.25
2023-03-30T11:11:22.641Z,99871.28
2023-03-30T11:13:51.324Z,99888.56
2023-03-30T11:16:25.875Z,99885.94
2023-03-30T11:19:00.113Z,99875.03
2023-03-30T11:21:37.368Z,99883.28
2023-03-30T11:24:07.651Z,99888.81
2023-03-30T11:26:48.393Z,99884.97
2023-03-30T11:29:31.293Z,99902.38
2023-03-30T11:32:10.439Z,99883.28
2023-03-30T11:34:43.610Z,99905.63
2023-03-30T11:37:16.175Z,99903.94
2023-03-30T11:39:50.586Z,99898.34
2023-03-30T11:42:23.912Z,99884.53
2023-03-30T11:44:51.870Z,99876.13
2023-03-30T11:47:24.975Z,99900.97
2023-03-30T11:49:58.045Z,99895.59
2023-03-30T11:52:35.819Z,99867.81
2023-03-30T11:55:19.549Z,99891.47
2023-03-30T11:57:49.616Z,99890.13
2023-03-30T12:00:26.691Z,99882.94
2023-03-30T12:03:13.364Z,99855.94
2023-03-30T12:05:44.501Z,99848.25
2023-03-30T12:08:14.283Z,99872.63
2023-03-30T12:10:42.120Z,99864.09
2023-03-30T12:13:12.280Z,99862.41
2023-03-30T12:15:53.900Z,99843.31
2023-03-30T12:18:32.080Z,99833.72
2023-03-30T12:21:17.957Z,99826.84
2023-03-30T12:23:45.024Z,99824.66
2023-03-30T12:26:31.781Z,99836.72
2023-03-30T12:31:51.252Z,99816.59
2023-03-30T12:34:19.360Z,99817.06
2023-03-30T12:36:49.093Z,99830.03
2023-03-30T12:39:21.815Z,99821.78
2023-03-30T12:41:50.303Z,99809.47
2023-03-30T12:44:17.356Z,99812.63
2023-03-30T12:47:18.422Z,99817.38
2023-03-30T12:50:04.120Z,99792.75
2023-03-30T12:52:49.297Z,99808.22
2023-03-30T12:55:34.837Z,99801.19
2023-03-30T12:58:26.957Z,99792.91
2023-03-30T13:01:12.781Z,99795.75
2023-03-30T13:03:50.265Z,99818.19
2023-03-30T13:06:38.276Z,99800.78
2023-03-30T13:09:08.114Z,99785.47
2023-03-30T13:11:47.299Z,99800.78
2023-03-30T13:14:26.656Z,99803.66
2023-03-30T13:16:53.770Z,99783.75
2023-03-30T13:19:33.461Z,99799.25
2023-03-30T13:22:12.802Z,99789.50
2023-03-30T13:24:42.854Z,99762.69
2023-03-30T13:27:30.331Z,99786.69
2023-03-30T13:30:00.543Z,99746.22
2023-03-30T13:32:33.879Z,99755.09
2023-03-30T13:35:27.485Z,99748.84
2023-03-30T13:37:54.614Z,99725.66
2023-03-30T13:40:37.276Z,99763.97
2023-03-30T13:43:10.114Z,99720.41
2023-03-30T13:45:50.021Z,99741.06
2023-03-30T13:48:35.972Z,99712.66
2023-03-30T13:51:04.414Z,99685.88
2023-03-30T13:53:37.775Z,99697.38
2023-03-30T13:56:09.428Z,99700.94
2023-03-30T13:58:37.381Z,99694.59
2023-03-30T14:01:14.801Z,99692.25
2023-03-30T14:03:45.729Z,99672.28
2023-03-30T14:06:13.544Z,99681.59
2023-03-30T14:08:45.159Z,99680.88
2023-03-30T14:11:20.138Z,99665.53
2023-03-30T14:13:49.276Z,99658.78
2023-03-30T14:16:21.901Z,99665.38
2023-03-30T14:18:49.554Z,99648.97
2023-03-30T14:21:21.935Z,99630.44
2023-03-30T14:23:51.420Z,99647.75
2023-03-30T14:26:22.365Z,99644.41
2023-03-30T14:28:54.245Z,99647.38
2023-03-30T14:31:21.563Z,99622.28
2023-03-30T14:33:49.176Z,99638.53
2023-03-30T14:36:20.529Z,99639.13
2023-03-30T14:38:52.774Z,99620.78
2023-03-30T14:41:23.253Z,99614.66
2023-03-30T14:44:10.759Z,99609.00
2023-03-30T14:46:48.596Z,99586.34
2023-03-30T14:49:34.532Z,99598.72
2023-03-30T14:52:08.959Z,99593.56
2023-03-30T14:54:36.925Z,99600.38
2023-03-30T14:57:06.181Z,99570.84
2023-03-30T14:59:34.404Z,99558.38
2023-03-30T15:02:02.218Z,99573.97
2023-03-30T15:04:32.643Z,99586.44
2023-03-30T15:07:00.264Z,99591.06
2023-03-30T15:09:27.399Z,99595.22
2023-03-30T15:11:59.331Z,99573.22
2023-03-30T15:14:27.138Z,99556.69
2023-03-30T15:16:55.667Z,99581.41
2023-03-30T15:19:30.519Z,99583.16
2023-03-30T15:22:00.002Z,99552.69
2023-03-30T15:24:32.370Z,99553.06
2023-03-30T15:27:02.365Z,99552.69
2023-03-30T15:29:29.735Z,99561.16
2023-03-30T15:32:01.337Z,99582.44
2023-03-30T15:34:28.491Z,99577.31
2023-03-30T15:36:55.815Z,99574.38
2023-03-30T15:39:33.670Z,99577.16
2023-03-30T15:42:04.367Z,99569.16
2023-03-30T15:44:36.405Z,99591.63
2023-03-30T15:47:04.261Z,99597.28
2023-03-30T15:49:39.804Z,99603.53
2023-03-30T15:52:14.222Z,99606.28
2023-03-30T15:54:44.736Z,99604.25
2023-03-30T15:57:13.450Z,99596.09
2023-03-30T15:59:44.095Z,99597.47
2023-03-30T16:02:21.589Z,99597.47
2023-03-30T16:04:52.199Z,99575.63
2023-03-30T16:07:20.783Z,99581.34
2023-03-30T16:09:48.573Z,99573.91
2023-03-30T16:12:17.583Z,99568.59
2023-03-30T16:14:44.812Z,99544.94
2023-03-30T16:17:13.221Z,99532.59
2023-03-30T16:19:41.233Z,99524.22
2023-03-30T16:22:09.619Z,99507.81
2023-03-30T16:24:37.144Z,99501.00
2023-03-30T16:27:05.112Z,99505.00
2023-03-30T16:29:32.576Z,99496.81
2023-03-30T16:32:00.041Z,99474.84
2023-03-30T16:34:27.198Z,99470.28
2023-03-30T16:36:54.349Z,99446.16
2023-03-30T16:39:21.420Z,99454.69
2023-03-30T16:41:49.528Z,99440.78
2023-03-30T16:44:17.385Z,99431.53
2023-03-30T16:46:45.467Z,99408.84
2023-03-30T16:49:17.702Z,99411.03
2023-03-30T16:51:45.208Z,99398.97
2023-03-30T16:54:27.258Z,99385.09
2023-03-30T16:56:57.191Z,99371.09
2023-03-30T16:59:25.864Z,99377.41
2023-03-30T17:01:53.061Z,99376.38
2023-03-30T17:04:20.397Z,99371.75
2023-03-30T17:06:47.574Z,99362.66
2023-03-30T17:09:18.378Z,99353.75
2023-03-30T17:11:46.459Z,99348.22
2023-03-30T17:14:13.930Z,99323.16
2023-03-30T17:16:41.079Z,99330.56
2023-03-30T17:19:12.652Z,99332.22
2023-03-30T17:21:43.871Z,99329.38
2023-03-30T17:24:12.783Z,99326.38
2023-03-30T17:26:40.606Z,99325.09
2023-03-30T17:29:07.643Z,99314.59
2023-03-30T17:31:34.978Z,99315.25
2023-03-30T17:34:02.165Z,99315.97
2023-03-30T17:36:29.286Z,99313.28
2023-03-30T17:38:56.677Z,99308.44
2023-03-30T17:41:23.830Z,99297.41
2023-03-30T17:43:51.662Z,99303.78
2023-03-30T17:46:19.528Z,99309.72
2023-03-30T17:48:46.973Z,99291.28
2023-03-30T17:51:14.044Z,99297.53
2023-03-30T17:53:41.156Z,99291.00
2023-03-30T17:56:11.671Z,99293.38
2023-03-30T17:58:38.907Z,99297.75
2023-03-30T18:01:07.933Z,99297.09
2023-03-30T18:03:35.559Z,99282.44
2023-03-30T18:06:03.005Z,99282.09
2023-03-30T18:08:30.401Z,99279.13
2023-03-30T18:10:58.620Z,99282.16
2023-03-30T18:13:26.405Z,99276.16
2023-03-30T18:15:54.907Z,99291.22
2023-03-30T18:18:24.763Z,99294.94
2023-03-30T18:20:53.193Z,99296.78
2023-03-30T18:23:20.574Z,99293.28
2023-03-30T18:25:47.863Z,99303.69
2023-03-30T18:28:17.149Z,99297.00
2023-03-30T18:30:44.407Z,99303.38
2023-03-30T18:33:11.782Z,99300.75
2023-03-30T18:35:39.110Z,99302.25
2023-03-30T18:38:06.235Z,99310.78
2023-03-30T18:40:38.156Z,99318.19
2023-03-30T18:43:05.852Z,99321.88
2023-03-30T18:45:38.055Z,99324.91
2023-03-30T18:48:06.416Z,99328.28
2023-03-30T18:50:36.736Z,99333.31
2023-03-30T18:53:05.261Z,99326.31
2023-03-30T18:55:33.378Z,99340.19
2023-03-30T18:58:02.564Z,99339.88
2023-03-30T19:00:30.996Z,99340.75
2023-03-30T19:02:59.012Z,99350.78
2023-03-30T19:05:27.109Z,99350.78
2023-03-30T19:07:54.272Z,99351.16
2023-03-30T19:10:23.199Z,99357.69
2023-03-30T19:12:53.407Z,99355.84
2023-03-30T19:15:23.452Z,99359.53
2023-03-30T19:17:51.397Z,99351.19
2023-03-30T19:20:19.887Z,99354.84
2023-03-30T19:22:47.082Z,99352.66
2023-03-30T19:25:15.361Z,99363.22
2023-03-30T19:27:55.524Z,99356.84
2023-03-30T19:30:28.862Z,99340.44
2023-03-30T19:32:58.139Z,99354.00
2023-03-30T19:35:25.808Z,99354.47
2023-03-30T19:37:53.279Z,99356.19
2023-03-30T19:40:21.751Z,99367.59
2023-03-30T19:42:49.291Z,99365.59
2023-03-30T19:45:17.639Z,99369.13
2023-03-30T19:47:44.951Z,99356.56
2023-03-30T19:50:15.399Z,99349.91
2023-03-30T19:52:42.621Z,99350.25
2023-03-30T19:55:10.335Z,99358.94
2023-03-30T19:57:37.734Z,99367.44
2023-03-30T20:00:12.508Z,99352.88
2023-03-30T20:02:41.152Z,99360.53
2023-03-30T20:05:12.870Z,99364.59
2023-03-30T20:07:40.742Z,99355.41
2023-03-30T20:10:08.908Z,99351.22
2023-03-30T20:12:36.049Z,99338.16
2023-03-30T20:15:05.765Z,99344.34
2023-03-30T20:17:34.218Z,99344.34
2023-03-30T20:20:09.008Z,99345.22
2023-03-30T20:22:37.421Z,99336.84
2023-03-30T20:25:06.504Z,99334.84
2023-03-30T20:27:33.941Z,99335.00
2023-03-30T20:30:01.449Z,99346.56
2023-03-30T20:32:28.546Z,99334.53
2023-03-30T20:34:55.626Z,99332.03
2023-03-30T20:37:22.783Z,99327.50
2023-03-30T20:39:50.527Z,99322.66
2023-03-30T20:42:18.101Z,99326.38
2023-03-30T20:44:50.263Z,99334.22
2023-03-30T20:47:17.823Z,99318.97
2023-03-30T20:49:46.315Z,99330.22
2023-03-30T20:52:13.471Z,99323.34
2023-03-30T20:54:44.371Z,99330.38
2023-03-30T20:57:11.999Z,99321.19
2023-03-30T20:59:39.531Z,99323.19
2023-03-30T21:02:07.056Z,99315.53
2023-03-30T21:04:34.199Z,99319.22
2023-03-30T21:07:01.519Z,99317.00
2023-03-30T21:09:29.237Z,99311.50
2023-03-30T21:11:56.330Z,99311.50
2023-03-30T21:14:24.193Z,99307.66
2023-03-30T21:16:51.282Z,99309.69
2023-03-30T21:19:18.375Z,99303.50
2023-03-30T21:21:45.509Z,99298.50
2023-03-30T21:24:12.712Z,99309.19
2023-03-30T21:26:40.895Z,99308.19
2023-03-30T21:29:07.977Z,99316.22
2023-03-30T21:31:35.093Z,99310.19
2023-03-30T21:34:02.355Z,99314.72
2023-03-30T21:36:29.579Z,99307.19
2023-03-30T21:38:58.602Z,99303.69
2023-03-30T21:41:26.190Z,99309.72
2023-03-30T21:43:53.662Z,99302.16
2023-03-30T21:46:22.031Z,99294.66
2023-03-30T21:48:51.792Z,99300.84
2023-03-30T21:51:21.968Z,99293.47
2023-03-30T21:53:50.697Z,99297.47
2023-03-30T21:56:18.743Z,99298.81
2023-03-30T21:58:46.210Z,99297.13
2023-03-30T22:01:13.367Z,99293.13
2023-03-30T22:03:41.784Z,99291.94
2023-03-30T22:06:09.929Z,99282.44
2023-03-30T22:08:37.205Z,99293.59
2023-03-30T22:11:23.656Z,99286.25
2023-03-30T22:13:52.111Z,99276.72
2023-03-30T22:16:22.218Z,99283.72
2023-03-30T22:18:50.095Z,99295.75
2023-03-30T22:21:18.831Z,99294.59
2023-03-30T22:23:46.572Z,99279.03
2023-03-30T22:26:14.437Z,99289.72
2023-03-30T22:28:42.145Z,99290.72
2023-03-30T22:31:10.322Z,99287.72
2023-03-30T22:33:37.677Z,99289.25
2023-03-30T22:36:05.390Z,99289.06
2023-03-30T22:38:32.945Z,99287.03
2023-03-30T22:41:06.450Z,99287.88
2023-03-30T22:43:35.714Z,99279.69
2023-03-30T22:46:03.732Z,99288.41
2023-03-30T22:48:31.250Z,99282.22
2023-03-30T22:51:02.189Z,99277.16
2023-03-30T22:53:30.128Z,99280.53
2023-03-30T22:55:57.623Z,99272.63
2023-03-30T22:58:24.683Z,99273.00
2023-03-30T23:00:52.031Z,99277.66
2023-03-30T23:03:19.207Z,99283.34
2023-03-30T23:05:52.746Z,99280.88
2023-03-30T23:08:19.848Z,99270.63
2023-03-30T23:10:46.878Z,99282.16
2023-03-30T23:13:14.094Z,99259.91
2023-03-30T23:15:42.731Z,99267.94
2023-03-30T23:18:10.038Z,99258.06
2023-03-30T23:20:37.391Z,99259.09
2023-03-30T23:23:04.460Z,99244.22
2023-03-30T23:25:31.517Z,99250.91
2023-03-30T23:27:58.553Z,99241.91
2023-03-30T23:30:25.588Z,99237.56
2023-03-30T23:32:52.633Z,99227.50
2023-03-30T23:35:19.866Z,99211.75
2023-03-30T23:37:46.932Z,99214.06
2023-03-30T23:40:14.093Z,99237.19
2023-03-30T23:42:41.223Z,99223.50
2023-03-30T23:45:08.569Z,99227.81
2023-03-30T23:47:35.787Z,99223.31
2023-03-30T23:50:03.093Z,99216.81
2023-03-30T23:52:30.892Z,99214.66
2023-03-30T23:55:01.837Z,99203.25
2023-03-30T23:57:29.145Z,99193.91
2023-03-30T23:59:56.304Z,99184.19
